»·PEaware :: ASA250 KSEA-KPDX

ASA250 :: KSEA-KPDX

FLIGHT INFORMATION

Flight Status: Arrived
Operator:
Alaska Airlines
More flights by this operator :: More flights under this callsign
Pilot: Andrew J. (13363)
Aircraft: AIRBUS A319
(A319)
More flights by this aircraft type
Origin: KSEA Seattle-Tacoma Intl
United States
Destination: KPDX Portland Intl
United States
More flights between these airports :: More routes between these airports
Route: SEA7 SEA BUWZO KRATR2
File this flight plan on PilotEdge
Remarks:
Altitude:
(Current/Filed)
15,000ft
Speed:
(Current/Filed)
322kts
Departed: 15-Oct-20 06:48 PM
Arrived: 15-Oct-20 07:15 PM
Distance/Time
Traveled:
112nm/0:26
Distance/Time
To Go:
Arrived

Flight Plot

Page will automatically refresh every two minutes.

Flight plan parsing failed; only flown route is shown


Map Options




Map Legend


Flown Route
Filed Route
Departure Airport
Arrival Airport
Navaid (VOR, NDB)
Fix

Horizontal Profiles

Position Reports

Time Latitude Longitude Heading Altitude Ground
Speed
15-Oct-20 18:23 47.449285 -122.304286 130 435ft 0kts
15-Oct-20 18:24 47.449285 -122.304286 130 435ft 0kts
15-Oct-20 18:25 47.449285 -122.304286 130 435ft 0kts
15-Oct-20 18:26 47.449285 -122.304286 130 435ft 0kts
15-Oct-20 18:26 47.449285 -122.304286 130 435ft 0kts
15-Oct-20 18:28 47.449285 -122.304286 130 435ft 0kts
15-Oct-20 18:28 47.449285 -122.304286 130 435ft 0kts
15-Oct-20 18:30 47.449285 -122.304286 130 435ft 0kts
15-Oct-20 18:30 47.449285 -122.304286 130 435ft 0kts
15-Oct-20 18:32 47.449285 -122.304286 130 435ft 0kts
15-Oct-20 18:32 47.449285 -122.304286 130 435ft 0kts
15-Oct-20 18:33 47.449285 -122.304286 130 435ft 0kts
15-Oct-20 18:34 47.449285 -122.304286 130 435ft 0kts
15-Oct-20 18:35 47.449285 -122.304286 130 435ft 0kts
15-Oct-20 18:36 47.449285 -122.304286 130 435ft 0kts
15-Oct-20 18:37 47.449285 -122.304286 130 435ft 0kts
15-Oct-20 18:38 47.449285 -122.304287 130 435ft 0kts
15-Oct-20 18:39 47.449608 -122.304810 136 435ft 2kts
15-Oct-20 18:40 47.449801 -122.305127 167 435ft 3kts
15-Oct-20 18:41 47.449558 -122.305149 187 435ft 0kts
15-Oct-20 18:42 47.449558 -122.305149 187 435ft 0kts
15-Oct-20 18:43 47.447396 -122.306257 181 435ft 15kts
15-Oct-20 18:44 47.442427 -122.306348 181 435ft 20kts
15-Oct-20 18:45 47.436425 -122.306400 169 435ft 22kts
15-Oct-20 18:46 47.431608 -122.307752 301 435ft 19kts
15-Oct-20 18:47 47.458541 -122.307725 352 1449ft 155kts
15-Oct-20 18:48 47.505296 -122.312030 351 4089ft 201kts
15-Oct-20 18:49 47.570495 -122.315186 9 7083ft 269kts
15-Oct-20 18:50 47.598021 -122.213483 111 10764ft 336kts
15-Oct-20 18:51 47.516432 -122.134850 192 12876ft 379kts
15-Oct-20 18:52 47.412844 -122.175374 199 14980ft 414kts
15-Oct-20 18:53 47.294455 -122.211628 197 14992ft 438kts
15-Oct-20 18:54 47.175125 -122.246025 197 15000ft 437kts
15-Oct-20 18:55 47.054228 -122.280778 197 15003ft 437kts
15-Oct-20 18:56 46.932759 -122.309705 187 15003ft 444kts
15-Oct-20 18:57 46.808073 -122.309559 182 15007ft 443kts
15-Oct-20 18:58 46.689018 -122.304286 179 15002ft 444kts
15-Oct-20 18:59 46.563696 -122.308544 183 15003ft 443kts
15-Oct-20 19:00 46.439386 -122.309444 182 14999ft 444kts
15-Oct-20 19:01 46.312435 -122.309760 182 14999ft 445kts
15-Oct-20 19:02 46.200903 -122.339683 206 11815ft 384kts
15-Oct-20 19:03 46.106322 -122.394107 204 8391ft 331kts
15-Oct-20 19:04 46.027481 -122.436957 204 8288ft 296kts
15-Oct-20 19:05 45.953930 -122.485329 228 7476ft 283kts
15-Oct-20 19:06 45.900021 -122.565810 230 5942ft 277kts
15-Oct-20 19:07 45.843849 -122.638654 215 4544ft 269kts
15-Oct-20 19:08 45.783505 -122.692030 214 3614ft 231kts
15-Oct-20 19:09 45.728865 -122.734845 204 2887ft 213kts
15-Oct-20 19:10 45.674813 -122.739001 171 2376ft 183kts
15-Oct-20 19:11 45.634992 -122.699875 113 1978ft 165kts
15-Oct-20 19:12 45.614700 -122.646464 118 813ft 138kts
15-Oct-20 19:13 45.596402 -122.599758 118 117ft 132kts
15-Oct-20 19:14 45.586344 -122.576294 212 25ft 10kts
15-Oct-20 19:15 45.586225 -122.576495 239 25ft 2kts
15-Oct-20 19:16 45.587486 -122.580076 298 25ft 17kts
15-Oct-20 19:17 45.590253 -122.587196 299 25ft 22kts
15-Oct-20 19:18 45.593391 -122.595211 297 28ft 19kts
15-Oct-20 19:19 45.591373 -122.599795 267 25ft 15kts
15-Oct-20 19:20 45.588638 -122.599396 118 23ft 15kts
15-Oct-20 19:21 45.588132 -122.595864 36 25ft 3kts
15-Oct-20 19:22 45.588196 -122.595795 36 25ft 0kts
15-Oct-20 19:23 45.588196 -122.595795 36 25ft 0kts
15-Oct-20 19:24 45.588195 -122.595796 21 25ft 0kts
15-Oct-20 19:25 45.588195 -122.595796 21 25ft 0kts
15-Oct-20 19:26 45.588195 -122.595796 21 25ft 0kts
15-Oct-20 19:27 45.588195 -122.595796 21 25ft 0kts

Navigation Log

Ident Type
Flight plan parsing failed, navigation log unavailable